Time;durP1;ratioP1;P1;durP2;ratioP2;P2;SDS_P1;SDS_P2;PMS_P1;PMS_P2;Temp;Humidity;BMP_temperature;BMP_pressure;BME280_temperature;BME280_humidity;BME280_pressure;Samples;Min_cycle;Max_cycle;Signal;HPM_P1;HPM_P2
2022/06/17 00:01:44;;;;;;;;;;;;;;;18.21;60.17;99853.41;4380952;32;19974;-86
2022/06/17 00:04:10;;;;;;;;;;;;;;;18.14;60.18;99857.38;4380637;32;19987;-88
2022/06/17 00:06:36;;;;;;;;;;;;;;;18.18;60.18;99854.44;4368441;32;19986;-89
2022/06/17 00:09:02;;;;;;;;;;;;;;;18.36;60.18;99855.94;4368366;32;20053;-89
2022/06/17 00:11:34;;;;;;;;;;;;;;;18.21;60.18;99856.03;4368517;32;19989;-88
2022/06/17 00:13:59;;;;;;;;;;;;;;;18.21;60.18;99856.03;4368422;32;20000;-88
2022/06/17 00:16:25;;;;;;;;;;;;;;;18.25;60.19;99862.84;4368030;32;19987;-89
2022/06/17 00:18:50;;;;;;;;;;;;;;;18.28;60.18;99854.75;4380741;32;20269;-88
2022/06/17 00:21:19;;;;;;;;;;;;;;;18.17;60.18;99849.28;4367704;32;20291;-88
2022/06/17 00:23:44;;;;;;;;;;;;;;;18.08;60.17;99853.31;4393074;32;19993;-89
2022/06/17 00:26:10;;;;;;;;;;;;;;;18.07;60.18;99857.75;4367980;32;20031;-87
2022/06/17 00:28:35;;;;;;;;;;;;;;;17.88;60.16;99856.31;4380512;32;19990;-86
2022/06/17 00:31:00;;;;;;;;;;;;;;;17.84;60.15;99866.19;4380511;32;20283;-86
2022/06/17 00:33:25;;;;;;;;;;;;;;;17.78;60.16;99854.25;4394206;32;19997;-87
2022/06/17 00:35:51;;;;;;;;;;;;;;;17.76;60.15;99860.56;4394210;32;19974;-88
2022/06/17 00:38:19;;;;;;;;;;;;;;;17.65;60.15;99870.81;4367974;32;20622;-87
2022/06/17 00:40:44;;;;;;;;;;;;;;;17.68;60.15;99878.56;4380451;32;19999;-87
2022/06/17 00:43:12;;;;;;;;;;;;;;;17.75;60.15;99875.50;4394224;32;19970;-86
2022/06/17 00:45:39;;;;;;;;;;;;;;;17.71;60.15;99870.47;4380448;32;20043;-86
2022/06/17 00:48:10;;;;;;;;;;;;;;;17.79;60.16;99858.59;4380464;32;20045;-87
2022/06/17 00:50:37;;;;;;;;;;;;;;;17.69;60.14;99849.53;4380309;32;20375;-86
2022/06/17 00:53:22;;;;;;;;;;;;;;;17.73;60.15;99845.75;4367843;32;19971;-88
2022/06/17 00:55:54;;;;;;;;;;;;;;;17.72;60.16;99845.84;4380062;32;20046;-89
2022/06/17 00:58:23;;;;;;;;;;;;;;;17.78;60.16;99850.78;4394234;32;19982;-88
2022/06/17 01:00:51;;;;;;;;;;;;;;;17.77;60.16;99842.03;4394408;32;20311;-88
2022/06/17 01:03:18;;;;;;;;;;;;;;;17.78;60.16;99854.25;4380487;32;20371;-88
2022/06/17 01:05:45;;;;;;;;;;;;;;;17.77;60.16;99849.94;4380375;32;20046;-87
2022/06/17 01:08:14;;;;;;;;;;;;;;;17.70;60.15;99847.72;4367827;32;19998;-88
2022/06/17 01:10:44;;;;;;;;;;;;;;;17.74;60.15;99841.34;4380352;32;19992;-88
2022/06/17 01:13:09;;;;;;;;;;;;;;;17.54;60.14;99846.94;4392683;32;19982;-90
2022/06/17 01:15:34;;;;;;;;;;;;;;;17.49;60.14;99847.19;4380253;32;20004;-90
2022/06/17 01:18:00;;;;;;;;;;;;;;;17.36;60.13;99849.69;4380238;32;20045;-90
2022/06/17 01:20:26;;;;;;;;;;;;;;;17.31;60.12;99862.28;4380050;32;19975;-90
2022/06/17 01:22:52;;;;;;;;;;;;;;;17.54;60.15;99860.94;4367658;32;20002;-90
2022/06/17 01:25:17;;;;;;;;;;;;;;;17.47;60.14;99865.69;4392669;32;20332;-90
2022/06/17 01:27:43;;;;;;;;;;;;;;;17.43;60.13;99864.19;4393938;32;19990;-90
2022/06/17 01:30:10;;;;;;;;;;;;;;;17.27;60.13;99862.53;4380134;32;19978;-90
2022/06/17 01:32:43;;;;;;;;;;;;;;;17.60;60.14;99867.62;4366663;32;19991;-91
2022/06/17 01:35:09;;;;;;;;;;;;;;;17.35;60.13;99870.84;4367747;32;20005;-91
2022/06/17 01:37:34;;;;;;;;;;;;;;;17.34;60.13;99877.03;4367681;32;20002;-90
2022/06/17 01:39:59;;;;;;;;;;;;;;;17.30;60.12;99880.78;4379737;32;20016;-91
2022/06/17 01:42:25;;;;;;;;;;;;;;;17.31;60.12;99880.69;4367352;32;20304;-90
2022/06/17 01:44:52;;;;;;;;;;;;;;;17.31;60.12;99891.22;4380008;32;19982;-89
2022/06/17 01:47:18;;;;;;;;;;;;;;;17.42;60.14;99890.59;4380155;32;20009;-90
2022/06/17 01:49:47;;;;;;;;;;;;;;;17.38;60.14;99897.81;4367280;32;20322;-91
2022/06/17 01:52:19;;;;;;;;;;;;;;;17.27;60.13;99894.09;4379975;32;19986;-90
2022/06/17 01:54:56;;;;;;;;;;;;;;;17.35;60.13;99895.37;4393619;32;19982;-90
2022/06/17 01:57:26;;;;;;;;;;;;;;;17.19;60.12;99895.37;4367119;32;20012;-90
2022/06/17 01:59:52;;;;;;;;;;;;;;;17.13;60.11;99901.00;4379714;32;19998;-91
2022/06/17 02:02:17;;;;;;;;;;;;;;;17.27;60.13;99902.87;4379882;32;20580;-90
2022/06/17 02:04:50;;;;;;;;;;;;;;;17.22;60.12;99902.25;4367276;32;20005;-91
2022/06/17 02:07:21;;;;;;;;;;;;;;;17.12;60.12;99904.56;4367344;32;19994;-91
2022/06/17 02:09:47;;;;;;;;;;;;;;;16.93;60.11;99910.94;4392160;32;19989;-91
2022/06/17 02:12:12;;;;;;;;;;;;;;;16.96;60.11;99910.75;4367153;32;20010;-92
2022/06/17 02:14:38;;;;;;;;;;;;;;;16.95;60.11;99907.28;4367072;32;20006;-91
2022/06/17 02:17:03;;;;;;;;;;;;;;;16.96;60.11;99901.09;4379476;32;20009;-91
2022/06/17 02:19:30;;;;;;;;;;;;;;;16.98;60.11;99896.59;4367050;32;19983;-91
2022/06/17 02:22:04;;;;;;;;;;;;;;;17.13;60.12;99902.78;4379504;32;19989;-91
2022/06/17 02:24:30;;;;;;;;;;;;;;;17.11;60.12;99894.97;4379442;32;20002;-91
2022/06/17 02:26:55;;;;;;;;;;;;;;;17.11;60.12;99894.13;4366731;32;20000;-91
2022/06/17 02:29:20;;;;;;;;;;;;;;;17.17;60.12;99896.41;4379331;32;19982;-90
2022/06/17 02:31:45;;;;;;;;;;;;;;;16.99;60.10;99892.19;4366427;32;20549;-91
2022/06/17 02:34:12;;;;;;;;;;;;;;;17.01;60.11;99892.94;4366622;32;19982;-89
2022/06/17 02:36:42;;;;;;;;;;;;;;;17.03;60.11;99897.19;4366861;32;20287;-90
2022/06/17 02:39:09;;;;;;;;;;;;;;;17.13;60.11;99893.13;4366546;32;19978;-89
2022/06/17 02:41:34;;;;;;;;;;;;;;;17.21;60.12;99903.19;4379210;32;19989;-90
2022/06/17 02:44:01;;;;;;;;;;;;;;;17.00;60.10;99904.41;4367205;32;19987;-90
2022/06/17 02:46:33;;;;;;;;;;;;;;;17.17;60.12;99896.41;4381145;32;20085;-88
2022/06/17 02:48:59;;;;;;;;;;;;;;;17.04;60.11;99898.91;4368553;32;20025;-89
2022/06/17 02:51:25;;;;;;;;;;;;;;;16.94;60.11;99910.00;4381154;32;19978;-89
2022/06/17 02:53:50;;;;;;;;;;;;;;;16.98;60.11;99903.63;4381309;32;20367;-89
2022/06/17 02:56:20;;;;;;;;;;;;;;;17.03;60.12;99907.69;4343325;32;786322;-88
2022/06/17 02:59:05;;;;;;;;;;;;;;;16.93;60.11;99906.53;4380938;32;19966;-92
2022/06/17 03:01:31;;;;;;;;;;;;;;;16.96;60.11;99905.50;4393785;32;19986;-91
2022/06/17 03:03:56;;;;;;;;;;;;;;;16.97;60.11;99904.56;4368700;32;20033;-91
2022/06/17 03:06:24;;;;;;;;;;;;;;;17.14;60.12;99904.47;4368428;32;19986;-89
2022/06/17 03:08:50;;;;;;;;;;;;;;;17.11;60.12;99892.34;4368360;32;20373;-89
2022/06/17 03:11:15;;;;;;;;;;;;;;;17.15;60.12;99885.13;4368377;32;19990;-90
2022/06/17 03:13:41;;;;;;;;;;;;;;;17.05;60.11;99891.88;4381038;32;20084;-90
2022/06/17 03:16:07;;;;;;;;;;;;;;;17.10;60.11;99893.28;4381064;32;19994;-90
2022/06/17 03:18:33;;;;;;;;;;;;;;;17.11;60.11;99889.72;4381026;32;19979;-91
2022/06/17 03:20:58;;;;;;;;;;;;;;;17.07;60.11;99880.31;4368044;32;19982;-89
2022/06/17 03:23:30;;;;;;;;;;;;;;;17.25;60.12;99878.41;4368388;32;19987;-88
2022/06/17 03:26:01;;;;;;;;;;;;;;;17.21;60.12;99889.19;4380933;32;20002;-88
2022/06/17 03:28:28;;;;;;;;;;;;;;;17.23;60.12;99893.44;4394714;32;19978;-88
2022/06/17 03:31:02;;;;;;;;;;;;;;;17.30;60.12;99901.84;4380872;32;19982;-89
2022/06/17 03:33:34;;;;;;;;;;;;;;;17.38;60.14;99900.44;4394579;32;20040;-87
2022/06/17 03:36:01;;;;;;;;;;;;;;;17.38;60.14;99895.19;4368469;32;19998;-88
2022/06/17 03:38:26;;;;;;;;;;;;;;;17.36;60.13;99899.69;4368271;32;19975;-89
2022/06/17 03:40:52;;;;;;;;;;;;;;;17.55;60.14;99899.47;4394744;32;20009;-89
2022/06/17 03:43:22;;;;;;;;;;;;;;;17.68;60.15;99903.09;4368300;32;20041;-88
2022/06/17 03:45:48;;;;;;;;;;;;;;;17.80;60.15;99896.28;4368243;32;19963;-89
2022/06/17 03:48:26;;;;;;;;;;;;;;;17.78;60.14;99900.81;4380724;32;20288;-88
2022/06/17 03:50:52;;;;;;;;;;;;;;;17.92;60.16;99906.06;4383200;32;20066;-89
2022/06/17 03:53:27;;;;;;;;;;;;;;;18.08;60.17;99913.91;4367984;32;20353;-89
2022/06/17 03:55:53;;;;;;;;;;;;;;;18.31;60.17;99909.87;4367773;32;20002;-89
2022/06/17 03:58:18;;;;;;;;;;;;;;;18.30;60.17;99913.47;4368158;32;19975;-90
2022/06/17 04:01:00;;;;;;;;;;;;;;;18.33;60.18;99929.09;4393166;32;19996;-89
2022/06/17 04:03:27;;;;;;;;;;;;;;;18.29;60.18;99922.31;4368093;32;20516;-90
2022/06/17 04:05:55;;;;;;;;;;;;;;;18.45;60.19;99924.84;4368229;32;20062;-90
2022/06/17 04:08:20;;;;;;;;;;;;;;;18.57;60.19;99919.66;4368088;32;19979;-91
2022/06/17 04:10:46;;;;;;;;;;;;;;;18.46;60.19;99927.41;4368237;32;20000;-89
2022/06/17 04:13:41;;;;;;;;;;;;;;;18.68;60.19;99926.91;4380794;32;20009;-93
2022/06/17 04:16:30;;;;;;;;;;;;;;;18.69;60.21;99929.50;4367849;32;20008;-89
2022/06/17 04:19:02;;;;;;;;;;;;;;;18.51;60.19;99935.03;4362364;32;19987;-89
2022/06/17 04:21:27;;;;;;;;;;;;;;;18.65;60.20;99938.50;4380715;32;19985;-87
2022/06/17 04:23:52;;;;;;;;;;;;;;;18.64;60.20;99936.81;4394072;32;19974;-87
2022/06/17 04:26:28;;;;;;;;;;;;;;;18.51;60.19;99941.16;4380369;32;20035;-86
2022/06/17 04:28:54;;;;;;;;;;;;;;;18.76;60.20;99939.66;4380609;32;20017;-87
2022/06/17 04:31:21;;;;;;;;;;;;;;;18.71;60.20;99937.31;4367953;32;19993;-87
2022/06/17 04:33:51;;;;;;;;;;;;;;;18.92;60.21;99941.19;4380498;32;20001;-87
2022/06/17 04:36:23;;;;;;;;;;;;;;;18.98;60.21;99932.06;4380555;32;19999;-87
2022/06/17 04:38:53;;;;;;;;;;;;;;;19.11;60.22;99932.97;4367718;32;19979;-86
2022/06/17 04:41:19;;;;;;;;;;;;;;;19.37;60.23;99935.72;4380479;32;20388;-87
2022/06/17 04:43:47;;;;;;;;;;;;;;;19.50;60.24;99934.81;4367862;32;19991;-86
2022/06/17 04:46:13;;;;;;;;;;;;;;;19.55;60.24;99935.38;4380597;32;20346;-86
2022/06/17 04:48:38;;;;;;;;;;;;;;;19.65;60.25;99932.16;4380361;32;19997;-86
2022/06/17 04:51:04;;;;;;;;;;;;;;;19.81;60.26;99931.00;4380340;32;20002;-87
2022/06/17 04:53:29;;;;;;;;;;;;;;;19.95;60.26;99923.97;4380264;32;19983;-86
2022/06/17 04:55:55;;;;;;;;;;;;;;;20.00;60.26;99922.69;4367680;32;20350;-87
2022/06/17 04:58:21;;;;;;;;;;;;;;;20.08;60.26;99923.00;4367554;32;19974;-88
2022/06/17 05:00:48;;;;;;;;;;;;;;;20.15;60.27;99926.09;4380258;32;19996;-88
2022/06/17 05:03:13;;;;;;;;;;;;;;;20.36;60.28;99927.25;4394101;32;20299;-87
2022/06/17 05:05:39;;;;;;;;;;;;;;;20.41;60.29;99935.75;4393697;32;19978;-87
2022/06/17 05:08:05;;;;;;;;;;;;;;;20.53;60.29;99934.03;4380299;32;20308;-87
2022/06/17 05:10:32;;;;;;;;;;;;;;;20.58;60.30;99941.63;4367676;32;20052;-87
2022/06/17 05:13:00;;;;;;;;;;;;;;;20.71;60.31;99942.47;4380363;32;20026;-86
2022/06/17 05:15:25;;;;;;;;;;;;;;;20.76;60.30;99945.63;4367643;32;20013;-86
2022/06/17 05:17:50;;;;;;;;;;;;;;;20.55;60.29;99937.41;4380146;32;20316;-87
2022/06/17 05:20:17;;;;;;;;;;;;;;;20.67;60.30;99939.19;4379908;32;20038;-88
2022/06/17 05:22:46;;;;;;;;;;;;;;;20.68;60.30;99927.66;4393957;32;19971;-87
2022/06/17 05:25:15;;;;;;;;;;;;;;;20.71;60.31;99934.53;4367538;32;20529;-85
2022/06/17 05:27:40;;;;;;;;;;;;;;;20.80;60.31;99939.16;4367501;32;19975;-86
2022/06/17 05:30:06;;;;;;;;;;;;;;;20.69;60.30;99937.28;4393262;32;23584;-87
2022/06/17 05:32:31;;;;;;;;;;;;;;;20.90;60.31;99926.13;4393857;32;19971;-86
2022/06/17 05:34:56;;;;;;;;;;;;;;;21.06;60.32;99924.94;4392487;32;19983;-87
2022/06/17 05:37:21;;;;;;;;;;;;;;;21.17;60.32;99924.13;4393226;32;26122;-88
2022/06/17 05:39:46;;;;;;;;;;;;;;;21.24;60.32;99919.25;4379603;32;19989;-87
2022/06/17 05:42:12;;;;;;;;;;;;;;;21.16;60.32;99922.44;4367346;32;20338;-88
2022/06/17 05:44:37;;;;;;;;;;;;;;;21.09;60.32;99930.00;4379895;32;20104;-88
2022/06/17 05:47:03;;;;;;;;;;;;;;;21.08;60.32;99943.34;4367183;32;19982;-88
2022/06/17 05:49:29;;;;;;;;;;;;;;;21.23;60.32;99954.59;4379992;32;20300;-87
2022/06/17 05:51:54;;;;;;;;;;;;;;;21.13;60.33;99944.69;4393918;32;20030;-87
2022/06/17 05:54:19;;;;;;;;;;;;;;;21.22;60.32;99966.12;4393820;32;19989;-87
2022/06/17 05:56:45;;;;;;;;;;;;;;;21.23;60.33;99966.03;4393508;32;20314;-88
2022/06/17 05:59:10;;;;;;;;;;;;;;;21.51;60.35;99970.19;4393658;32;20016;-87
2022/06/17 06:01:35;;;;;;;;;;;;;;;21.56;60.34;99972.50;4393754;32;20022;-87
2022/06/17 06:04:01;;;;;;;;;;;;;;;21.63;60.35;99974.59;4380039;32;20021;-87
2022/06/17 06:06:26;;;;;;;;;;;;;;;21.77;60.36;99962.97;4393634;32;19993;-87
2022/06/17 06:08:51;;;;;;;;;;;;;;;22.09;60.37;99971.16;4393748;32;19970;-87
2022/06/17 06:11:16;;;;;;;;;;;;;;;22.28;60.39;99966.16;4379836;32;19986;-87
2022/06/17 06:13:42;;;;;;;;;;;;;;;22.31;60.38;99973.00;4393497;32;19993;-87
2022/06/17 06:16:08;;;;;;;;;;;;;;;22.42;60.40;99967.72;4379726;32;20367;-87
2022/06/17 06:18:34;;;;;;;;;;;;;;;22.44;60.40;99976.41;4380137;32;20033;-87
2022/06/17 06:21:04;;;;;;;;;;;;;;;22.32;60.38;99982.66;4381409;32;20041;-87
2022/06/17 06:23:29;;;;;;;;;;;;;;;22.35;60.40;99983.25;4395234;32;20052;-87
2022/06/17 06:25:54;;;;;;;;;;;;;;;22.57;60.39;99976.28;4381008;32;20300;-87
2022/06/17 06:28:21;;;;;;;;;;;;;;;22.45;60.39;99974.59;4381321;32;19986;-87
2022/06/17 06:30:50;;;;;;;;;;;;;;;22.63;60.40;99994.37;4394965;32;19982;-88
2022/06/17 06:33:15;;;;;;;;;;;;;;;22.46;60.39;99989.53;4381375;32;20012;-87
2022/06/17 06:35:40;;;;;;;;;;;;;;;22.34;60.39;99996.66;4395135;32;19978;-86
2022/06/17 06:38:06;;;;;;;;;;;;;;;22.40;60.39;100003.28;4393284;32;24169;-87
2022/06/17 06:40:31;;;;;;;;;;;;;;;22.16;60.38;100001.53;4381035;32;19975;-87
2022/06/17 06:42:56;;;;;;;;;;;;;;;22.28;60.39;100002.44;4381170;32;20070;-86
2022/06/17 06:45:23;;;;;;;;;;;;;;;22.29;60.39;99996.16;4368658;32;20221;-87
2022/06/17 06:47:49;;;;;;;;;;;;;;;22.30;60.39;100003.16;4381076;32;19975;-86
2022/06/17 06:50:15;;;;;;;;;;;;;;;22.34;60.40;100000.16;4381073;32;20336;-86
2022/06/17 06:52:41;;;;;;;;;;;;;;;22.48;60.40;100006.22;4381161;32;20013;-88
2022/06/17 06:55:06;;;;;;;;;;;;;;;22.48;60.39;100001.75;4368686;32;19982;-88
2022/06/17 06:57:32;;;;;;;;;;;;;;;22.85;60.42;99996.22;4394634;32;19985;-87
2022/06/17 07:00:01;;;;;;;;;;;;;;;22.95;60.41;99987.44;4381378;32;20013;-87
2022/06/17 07:02:26;;;;;;;;;;;;;;;22.82;60.42;99992.00;4381371;32;20013;-88
2022/06/17 07:04:51;;;;;;;;;;;;;;;22.87;60.41;99989.84;4381251;32;19971;-88
2022/06/17 07:07:16;;;;;;;;;;;;;;;22.96;60.43;99989.12;4393120;32;29357;-87
2022/06/17 07:09:42;;;;;;;;;;;;;;;22.98;60.43;99996.13;4381211;32;19986;-86
2022/06/17 07:12:07;;;;;;;;;;;;;;;22.92;60.43;99994.78;4368616;32;20018;-87
2022/06/17 07:14:32;;;;;;;;;;;;;;;23.06;60.43;99988.38;4381375;32;19974;-87
2022/06/17 07:16:58;;;;;;;;;;;;;;;23.47;60.45;99990.34;4381029;32;20047;-87
2022/06/17 07:19:23;;;;;;;;;;;;;;;23.70;60.47;99999.13;4394708;32;19974;-87
2022/06/17 07:21:48;;;;;;;;;;;;;;;23.34;60.43;100003.78;4380500;32;23299;-87
2022/06/17 07:24:15;;;;;;;;;;;;;;;23.38;60.45;99999.91;4368466;32;20018;-87
2022/06/17 07:26:40;;;;;;;;;;;;;;;23.45;60.45;100001.09;4381063;32;19982;-87
2022/06/17 07:29:06;;;;;;;;;;;;;;;23.36;60.45;99999.19;4368076;32;19987;-87
2022/06/17 07:31:31;;;;;;;;;;;;;;;23.43;60.45;100003.03;4380204;32;19990;-86
2022/06/17 07:33:57;;;;;;;;;;;;;;;23.55;60.46;100002.03;4394611;32;19970;-87
2022/06/17 07:41:52;;;;;;;;;;;;;;;23.82;60.48;100014.03;4394669;32;20017;-87
2022/06/17 07:44:17;;;;;;;;;;;;;;;23.89;60.47;100001.91;4381022;32;19970;-87
2022/06/17 07:46:43;;;;;;;;;;;;;;;24.22;60.50;100000.09;4394579;32;19970;-88
2022/06/17 07:49:09;;;;;;;;;;;;;;;24.51;60.50;100006.44;4394452;32;19986;-87
2022/06/17 07:51:35;;;;;;;;;;;;;;;24.53;60.51;99993.84;4394474;32;20259;-87
2022/06/17 07:54:00;;;;;;;;;;;;;;;24.46;60.51;99992.69;4394282;32;19978;-87
2022/06/17 07:56:25;;;;;;;;;;;;;;;24.54;60.51;100000.84;4380680;32;20308;-87
2022/06/17 07:58:50;;;;;;;;;;;;;;;24.46;60.51;99995.34;4394334;32;19987;-87
2022/06/17 08:01:16;;;;;;;;;;;;;;;24.79;60.52;100005.75;4393255;32;20025;-88
2022/06/17 08:03:41;;;;;;;;;;;;;;;24.80;60.52;100010.09;4380653;32;19979;-87
2022/06/17 08:06:06;;;;;;;;;;;;;;;24.89;60.53;100000.47;4394215;32;20012;-87
2022/06/17 08:08:33;;;;;;;;;;;;;;;24.88;60.52;100005.94;4380669;32;19982;-87
2022/06/17 08:10:59;;;;;;;;;;;;;;;25.06;60.53;100007.00;4394432;32;19986;-87
2022/06/17 08:13:24;;;;;;;;;;;;;;;25.42;60.55;100007.38;4380731;32;20308;-88
2022/06/17 08:15:50;;;;;;;;;;;;;;;25.72;60.57;100009.13;4380577;32;19997;-87
2022/06/17 08:18:15;;;;;;;;;;;;;;;25.87;60.58;100003.25;4380422;32;20014;-87
2022/06/17 08:20:41;;;;;;;;;;;;;;;25.79;60.57;100015.56;4380014;32;22393;-87
2022/06/17 08:23:06;;;;;;;;;;;;;;;25.63;60.56;100011.62;4367981;32;20006;-87
2022/06/17 08:25:32;;;;;;;;;;;;;;;25.76;60.56;100010.53;4380648;32;19971;-88
2022/06/17 08:27:57;;;;;;;;;;;;;;;26.11;60.59;100005.47;4380410;32;20077;-87
2022/06/17 08:30:27;;;;;;;;;;;;;;;26.22;60.58;100009.78;4380530;32;19995;-88
2022/06/17 08:32:53;;;;;;;;;;;;;;;26.43;60.61;100006.97;4394328;32;19974;-87
2022/06/17 08:35:23;;;;;;;;;;;;;;;26.51;60.61;100012.47;4380547;32;20011;-87
2022/06/17 08:37:48;;;;;;;;;;;;;;;26.81;60.62;100001.53;4380490;32;20026;-87
2022/06/17 08:40:13;;;;;;;;;;;;;;;27.22;60.65;99999.41;4380370;32;19994;-88
2022/06/17 08:42:44;;;;;;;;;;;;;;;27.52;60.66;99999.06;4393845;32;20329;-88
2022/06/17 08:45:12;;;;;;;;;;;;;;;27.75;60.67;99993.28;4380682;32;19974;-88
2022/06/17 08:47:43;;;;;;;;;;;;;;;28.02;60.68;99993.19;4394163;32;20726;-88
2022/06/17 08:50:17;;;;;;;;;;;;;;;28.24;60.70;99991.84;4394088;32;20039;-87
2022/06/17 08:52:42;;;;;;;;;;;;;;;28.35;60.70;99998.81;4380451;32;20016;-86
2022/06/17 08:55:30;;;;;;;;;;;;;;;28.23;60.70;99998.19;4394133;32;20002;-87
2022/06/17 08:58:14;;;;;;;;;;;;;;;28.46;60.71;100003.91;4352164;32;20343;-88
2022/06/17 09:00:42;;;;;;;;;;;;;;;28.82;60.73;100006.44;4394193;32;19994;-87
2022/06/17 09:03:26;;;;;;;;;;;;;;;28.79;60.73;100001.41;4380271;32;19970;-88
2022/06/17 09:05:54;;;;;;;;;;;;;;;29.01;60.74;99998.19;4394235;32;20221;-87
2022/06/17 09:08:41;;;;;;;;;;;;;;;29.18;60.75;100007.16;4393938;32;19997;-87
2022/06/17 09:11:06;;;;;;;;;;;;;;;29.09;60.73;100013.47;4380269;32;20300;-86
2022/06/17 09:13:43;;;;;;;;;;;;;;;29.39;60.75;100006.72;4394021;32;20021;-84
2022/06/17 09:16:25;;;;;;;;;;;;;;;29.25;60.75;100014.38;4394008;32;20109;-84
2022/06/17 09:18:53;;;;;;;;;;;;;;;29.34;60.75;100012.56;4380192;32;20006;-84
2022/06/17 09:21:22;;;;;;;;;;;;;;;29.24;60.75;100019.87;4380041;32;20257;-84
2022/06/17 09:23:47;;;;;;;;;;;;;;;29.34;60.76;100025.97;4367615;32;19989;-84
2022/06/17 09:26:23;;;;;;;;;;;;;;;29.44;60.76;100018.62;4393498;32;22184;-84
2022/06/17 09:28:49;;;;;;;;;;;;;;;29.39;60.76;100020.13;4367589;32;20071;-84
2022/06/17 09:31:17;;;;;;;;;;;;;;;29.39;60.76;100018.28;4380202;32;20024;-84
2022/06/17 09:33:43;;;;;;;;;;;;;;;29.50;60.77;100017.97;4380086;32;19970;-83
2022/06/17 09:36:19;;;;;;;;;;;;;;;29.59;60.77;100024.22;4380140;32;19986;-82
2022/06/17 09:38:50;;;;;;;;;;;;;;;29.42;60.76;100025.16;4379998;32;19994;-83
2022/06/17 09:41:20;;;;;;;;;;;;;;;29.36;60.76;100023.97;4380096;32;20014;-82
2022/06/17 09:44:05;;;;;;;;;;;;;;;29.34;60.76;100024.13;4380034;32;20036;-82
2022/06/17 09:46:51;;;;;;;;;;;;;;;29.22;60.75;100028.09;4369273;32;20002;-81
2022/06/17 09:49:27;;;;;;;;;;;;;;;28.98;60.74;100025.31;4379970;32;20298;-83
2022/06/17 09:52:13;;;;;;;;;;;;;;;29.03;60.74;100050.63;4367369;32;19998;-82
2022/06/17 09:54:43;;;;;;;;;;;;;;;29.02;60.75;100050.78;4366386;32;20458;-82
2022/06/17 09:57:19;;;;;;;;;;;;;;;28.97;60.74;100053.97;4379712;32;19986;-82
2022/06/17 09:59:45;;;;;;;;;;;;;;;29.19;60.76;100054.41;4379841;32;20268;-82
2022/06/17 10:02:27;;;;;;;;;;;;;;;29.53;60.77;100055.22;4379786;32;19998;-82
2022/06/17 10:04:52;;;;;;;;;;;;;;;29.51;60.77;100064.41;4379621;32;19986;-82
2022/06/17 10:07:38;;;;;;;;;;;;;;;29.54;60.77;100064.94;4393391;32;19966;-82
2022/06/17 10:10:25;;;;;;;;;;;;;;;29.73;60.78;100071.84;4379551;32;19986;-82
2022/06/17 10:12:50;;;;;;;;;;;;;;;29.57;60.77;100067.28;4379746;32;20360;-82
2022/06/17 10:15:18;;;;;;;;;;;;;;;29.36;60.76;100072.25;4392022;32;20307;-82
2022/06/17 10:20:49;;;;;;;;;;;;;;;29.09;60.75;100070.59;4381638;32;20028;-82
2022/06/17 10:23:26;;;;;;;;;;;;;;;29.22;60.75;100072.84;4367087;32;19994;-82
2022/06/17 10:26:03;;;;;;;;;;;;;;;29.44;60.77;100074.09;4366797;32;19979;-82
2022/06/17 10:28:47;;;;;;;;;;;;;;;29.38;60.76;100075.59;4379570;32;20005;-82
2022/06/17 10:31:15;;;;;;;;;;;;;;;29.36;60.76;100079.44;4393509;32;20109;-82
2022/06/17 10:33:41;;;;;;;;;;;;;;;29.12;60.75;100078.34;4379679;32;20020;-82
2022/06/17 10:36:06;;;;;;;;;;;;;;;29.50;60.78;100078.84;4366942;32;20412;-82
2022/06/17 10:38:32;;;;;;;;;;;;;;;29.68;60.78;100079.56;4379479;32;20236;-82
2022/06/17 10:40:57;;;;;;;;;;;;;;;29.70;60.78;100074.03;4379506;32;19986;-82
2022/06/17 10:43:34;;;;;;;;;;;;;;;29.67;60.78;100085.09;4379542;32;20054;-82
2022/06/17 10:45:59;;;;;;;;;;;;;;;29.75;60.79;100067.16;4379439;32;19987;-82
2022/06/17 10:48:37;;;;;;;;;;;;;;;29.91;60.79;100067.19;4378633;32;31905;-82
2022/06/17 10:51:03;;;;;;;;;;;;;;;29.79;60.78;100079.25;4366939;32;19991;-83
2022/06/17 10:53:31;;;;;;;;;;;;;;;29.82;60.79;100086.16;4393075;32;20070;-83
2022/06/17 10:55:57;;;;;;;;;;;;;;;29.89;60.80;100073.75;4366805;32;19979;-82
2022/06/17 10:58:23;;;;;;;;;;;;;;;29.92;60.79;100071.56;4392691;32;19981;-83
2022/06/17 11:00:51;;;;;;;;;;;;;;;30.17;60.80;100076.97;4379266;32;19987;-83
2022/06/17 11:03:28;;;;;;;;;;;;;;;30.09;60.80;100080.53;4392936;32;20005;-82
2022/06/17 11:05:58;;;;;;;;;;;;;;;29.91;60.80;100074.41;4394186;32;19971;-82
2022/06/17 11:08:28;;;;;;;;;;;;;;;30.18;60.80;100076.81;4381104;32;20034;-83
2022/06/17 11:10:54;;;;;;;;;;;;;;;30.31;60.81;100079.03;4394909;32;20320;-83
2022/06/17 11:13:20;;;;;;;;;;;;;;;30.20;60.80;100071.28;4381175;32;20345;-83
2022/06/17 11:15:46;;;;;;;;;;;;;;;30.30;60.82;100084.56;4394376;32;19993;-83
2022/06/17 11:18:16;;;;;;;;;;;;;;;30.40;60.82;100080.69;4381017;32;19987;-83
2022/06/17 11:20:43;;;;;;;;;;;;;;;30.34;60.82;100081.34;4368843;32;20472;-82
2022/06/17 11:23:22;;;;;;;;;;;;;;;30.27;60.81;100084.87;4368409;32;20005;-83
2022/06/17 11:25:47;;;;;;;;;;;;;;;30.35;60.81;100077.66;4368441;32;19997;-83
2022/06/17 11:28:31;;;;;;;;;;;;;;;30.05;60.80;100081.84;4380830;32;20312;-83
2022/06/17 11:30:57;;;;;;;;;;;;;;;29.63;60.78;100076.53;4380965;32;20045;-83
2022/06/17 11:33:26;;;;;;;;;;;;;;;29.42;60.77;100085.00;4394767;32;19986;-83
2022/06/17 11:36:17;;;;;;;;;;;;;;;29.65;60.79;100082.59;4394735;32;19979;-83
2022/06/17 11:38:42;;;;;;;;;;;;;;;29.70;60.78;100074.87;4391704;32;19963;-82
2022/06/17 11:41:07;;;;;;;;;;;;;;;29.51;60.78;100081.34;4394890;32;20000;-82
2022/06/17 11:43:35;;;;;;;;;;;;;;;29.29;60.77;100088.13;4394061;32;31673;-83
2022/06/17 11:46:07;;;;;;;;;;;;;;;29.08;60.75;100089.50;4368759;32;19989;-83
2022/06/17 11:48:32;;;;;;;;;;;;;;;28.77;60.74;100089.97;4381002;32;19979;-83
2022/06/17 11:50:59;;;;;;;;;;;;;;;28.70;60.74;100087.09;4394302;32;24381;-83
2022/06/17 11:53:24;;;;;;;;;;;;;;;28.74;60.74;100082.25;4368271;32;20097;-82
2022/06/17 11:55:49;;;;;;;;;;;;;;;28.80;60.74;100081.63;4394224;32;25024;-83
2022/06/17 11:58:17;;;;;;;;;;;;;;;28.80;60.74;100083.47;4394074;32;24816;-83
2022/06/17 12:00:51;;;;;;;;;;;;;;;28.80;60.75;100065.53;4381142;32;20384;-84
2022/06/17 12:03:17;;;;;;;;;;;;;;;28.78;60.74;100070.22;4380934;32;20012;-83
2022/06/17 12:05:43;;;;;;;;;;;;;;;29.04;60.75;100064.88;4380641;32;20324;-83
2022/06/17 12:08:25;;;;;;;;;;;;;;;28.89;60.74;100067.34;4380700;32;19982;-83
2022/06/17 12:10:51;;;;;;;;;;;;;;;29.11;60.76;100057.91;4380680;32;20359;-82
2022/06/17 12:13:24;;;;;;;;;;;;;;;29.21;60.76;100052.41;4368142;32;20013;-83
2022/06/17 12:15:58;;;;;;;;;;;;;;;29.14;60.76;100051.38;4380577;32;19995;-82
2022/06/17 12:18:27;;;;;;;;;;;;;;;29.14;60.76;100056.72;4380400;32;19994;-84
2022/06/17 12:21:05;;;;;;;;;;;;;;;28.81;60.74;100061.03;4380707;32;19987;-83
2022/06/17 12:23:45;;;;;;;;;;;;;;;28.85;60.75;100041.81;4380867;32;19998;-84
2022/06/17 12:26:12;;;;;;;;;;;;;;;28.96;60.75;100054.13;4394248;32;19986;-83
2022/06/17 12:28:44;;;;;;;;;;;;;;;28.73;60.74;100043.91;4380560;32;19979;-84
2022/06/17 12:31:18;;;;;;;;;;;;;;;28.50;60.73;100040.09;4380557;32;20029;-83
2022/06/17 12:33:47;;;;;;;;;;;;;;;28.25;60.72;100048.94;4394411;32;19986;-84
2022/06/17 12:36:16;;;;;;;;;;;;;;;28.12;60.71;100050.13;4380567;32;20274;-84
2022/06/17 12:38:50;;;;;;;;;;;;;;;28.30;60.72;100044.78;4367924;32;20436;-84
2022/06/17 12:41:23;;;;;;;;;;;;;;;28.40;60.72;100029.50;4380544;32;20041;-84
2022/06/17 12:43:52;;;;;;;;;;;;;;;28.41;60.72;100059.78;4380508;32;20369;-84
2022/06/17 12:46:17;;;;;;;;;;;;;;;28.30;60.72;100054.66;4380389;32;19974;-85
2022/06/17 12:53:13;;;;;;;;;;;;;;;28.18;60.71;100055.88;4394162;32;19970;-84
2022/06/17 12:54:36;;;;;;;;;;;;;;;28.29;60.73;100043.09;4382596;32;20000;-84
2022/06/17 12:57:04;;;;;;;;;;;;;;;28.27;60.71;100021.00;4380221;32;19989;-84
2022/06/17 12:59:32;;;;;;;;;;;;;;;28.45;60.73;100031.69;4394210;32;20326;-84
2022/06/17 13:02:07;;;;;;;;;;;;;;;28.50;60.73;100026.69;4394099;32;19970;-84